Time;durP1;ratioP1;P1;durP2;ratioP2;P2;SDS_P1;SDS_P2;PMS_P1;PMS_P2;Temp;Humidity;BMP_temperature;BMP_pressure;BME280_temperature;BME280_humidity;BME280_pressure;Samples;Min_cycle;Max_cycle;Signal;HPM_P1;HPM_P2
2022/12/30 02:06:45;;;;;;;1.20;1.10;;;;;;;2.92;100.00;99967.16;6277418;22;20032;-93
2022/12/30 02:09:11;;;;;;;12.40;4.88;;;;;;;2.96;100.00;99981.66;6224734;22;20464;-93
2022/12/30 02:11:36;;;;;;;2.97;2.78;;;;;;;3.06;100.00;99989.94;6227731;22;20051;-93
2022/12/30 02:14:02;;;;;;;4.93;3.92;;;;;;;3.06;100.00;99994.63;6227003;22;20008;-93
2022/12/30 02:16:34;;;;;;;1.38;1.27;;;;;;;3.25;100.00;100018.94;6226519;22;20037;-94
2022/12/30 02:19:06;;;;;;;4.07;2.83;;;;;;;3.17;100.00;100001.69;6250061;22;20061;-95
2022/12/30 02:21:46;;;;;;;10.07;2.75;;;;;;;2.99;100.00;99962.50;6226824;22;20020;-93
2022/12/30 02:24:32;;;;;;;1.65;1.55;;;;;;;3.05;100.00;99976.59;6227044;22;20493;-94
2022/12/30 02:27:00;;;;;;;2.15;1.95;;;;;;;3.26;100.00;100004.06;6201236;22;20012;-94
2022/12/30 02:29:54;;;;;;;5.57;3.85;;;;;;;3.26;100.00;100004.06;6225935;22;20016;-94
2022/12/30 02:32:35;;;;;;;0.88;0.88;;;;;;;3.21;100.00;100002.50;6225066;22;20016;-94
2022/12/30 02:35:03;;;;;;;7.28;2.50;;;;;;;3.19;100.00;99999.38;6226333;22;20015;-94
2022/12/30 02:37:38;;;;;;;1.45;1.35;;;;;;;3.19;100.00;100004.06;6226230;22;20015;-95
2022/12/30 02:40:04;;;;;;;9.48;3.13;;;;;;;3.21;100.00;99988.00;6252649;22;20024;-94
2022/12/30 02:45:40;;;;;;;1.15;1.15;;;;;;;3.28;100.00;100007.19;6241187;22;20014;-94
2022/12/30 02:48:13;;;;;;;8.48;2.55;;;;;;;3.05;100.00;99960.16;6217165;22;20015;-95
2022/12/30 02:53:27;;;;;;;2.53;2.35;;;;;;;3.06;100.00;99951.56;6237955;22;20012;-96
2022/12/30 02:55:53;;;;;;;1.60;1.45;;;;;;;3.15;100.00;99953.94;6208912;22;20012;-95
2022/12/30 02:58:19;;;;;;;4.20;1.83;;;;;;;3.25;100.00;99964.13;6207281;22;20073;-95
2022/12/30 03:04:10;;;;;;;1.85;1.75;;;;;;;3.22;100.00;99942.97;6227441;23;20020;-94
2022/12/30 03:06:42;;;;;;;4.85;2.88;;;;;;;3.34;100.00;99953.56;6202348;23;20047;-95
2022/12/30 03:09:19;;;;;;;1.88;1.75;;;;;;;3.53;100.00;99977.06;6202594;23;20052;-95
2022/12/30 03:12:17;;;;;;;2.22;2.13;;;;;;;3.69;100.00;99985.69;6203761;23;20012;-95
2022/12/30 03:14:48;;;;;;;1.70;1.58;;;;;;;3.38;100.00;99940.63;6207935;23;20012;-95
2022/12/30 03:17:18;;;;;;;3.20;1.75;;;;;;;3.40;100.00;99943.75;6201500;23;20008;-95
2022/12/30 03:19:47;;;;;;;1.75;1.60;;;;;;;3.41;100.00;99952.78;6200650;23;20085;-95
2022/12/30 03:27:44;;;;;;;3.17;2.85;;;;;;;3.28;100.00;99952.38;6203233;23;20019;-95
2022/12/30 03:30:10;;;;;;;3.10;2.25;;;;;;;3.29;100.00;99953.94;6174641;23;20095;-95
2022/12/30 03:32:36;;;;;;;5.40;3.65;;;;;;;3.29;100.00;99964.91;6174894;23;20003;-95
2022/12/30 03:35:02;;;;;;;5.80;5.30;;;;;;;3.36;100.00;99970.38;6176232;23;20090;-96
2022/12/30 03:37:33;;;;;;;2.50;1.95;;;;;;;3.13;100.00;99956.25;6200140;23;20038;-95
2022/12/30 03:40:10;;;;;;;2.05;1.40;;;;;;;3.34;100.00;99994.69;6202181;23;20475;-94
2022/12/30 03:42:36;;;;;;;2.95;2.72;;;;;;;3.01;100.00;99951.16;6177117;23;20012;-94
2022/12/30 03:45:03;;;;;;;1.55;1.45;;;;;;;2.96;100.00;99957.78;6201261;23;20040;-95
2022/12/30 03:47:29;;;;;;;7.00;4.63;;;;;;;2.90;100.00;99939.38;6201561;23;20014;-94
2022/12/30 03:49:55;;;;;;;2.30;2.10;;;;;;;2.97;100.00;99953.09;6177562;23;20063;-95
2022/12/30 03:52:21;;;;;;;4.57;3.22;;;;;;;2.92;100.00;99956.19;6175817;23;20005;-95
2022/12/30 03:54:48;;;;;;;2.40;2.30;;;;;;;2.95;100.00;99958.19;6175530;23;20170;-95
2022/12/30 03:57:14;;;;;;;2.95;2.72;;;;;;;2.83;100.00;99942.91;6199280;23;20016;-95
2022/12/30 03:59:41;;;;;;;1.55;1.48;;;;;;;2.97;100.00;99985.97;6199664;23;20452;-95
2022/12/30 04:02:06;;;;;;;2.88;2.67;;;;;;;2.83;100.00;99962.06;6200427;23;20047;-95
2022/12/30 04:04:32;;;;;;;2.15;2.05;;;;;;;2.81;100.00;99951.50;6176202;23;20083;-95
2022/12/30 04:06:58;;;;;;;2.70;2.50;;;;;;;2.83;100.00;99953.06;6175711;23;20004;-95
2022/12/30 04:09:24;;;;;;;3.17;2.28;;;;;;;2.90;100.00;99953.88;6175655;23;20043;-95
2022/12/30 04:11:50;;;;;;;3.80;3.47;;;;;;;3.22;100.00;99981.34;6200393;23;20072;-94
2022/12/30 04:14:16;;;;;;;2.67;2.47;;;;;;;3.26;100.00;99976.66;6178012;23;20094;-95
2022/12/30 04:16:42;;;;;;;1.20;1.15;;;;;;;3.21;100.00;99960.59;6177291;23;20008;-95
2022/12/30 04:19:07;;;;;;;2.40;2.30;;;;;;;3.24;100.00;99957.84;6177070;23;20012;-95
2022/12/30 04:21:33;;;;;;;1.60;1.50;;;;;;;3.23;100.00;99961.00;6174406;23;20016;-95
2022/12/30 04:23:59;;;;;;;4.35;2.97;;;;;;;3.37;100.00;99982.94;6174919;23;20000;-95
2022/12/30 04:26:25;;;;;;;5.47;2.78;;;;;;;3.27;100.00;99961.78;6176233;23;20043;-95
2022/12/30 04:28:51;;;;;;;2.28;2.05;;;;;;;3.36;100.00;99964.91;6176025;23;20012;-95
2022/12/30 04:31:17;;;;;;;0.82;0.82;;;;;;;3.40;100.00;99970.41;6200983;23;20008;-94
2022/12/30 04:33:42;;;;;;;6.22;1.85;;;;;;;3.61;100.00;99982.16;6201439;23;20038;-95
2022/12/30 04:36:08;;;;;;;1.95;1.75;;;;;;;3.65;100.00;99971.19;6177408;23;20012;-95
2022/12/30 04:38:34;;;;;;;1.83;1.73;;;;;;;3.74;100.00;99972.38;6177277;23;20019;-95
2022/12/30 04:41:00;;;;;;;1.00;0.98;;;;;;;3.78;100.00;99957.88;6178801;23;20420;-94
2022/12/30 04:43:26;;;;;;;2.45;2.25;;;;;;;3.81;100.00;99968.06;6186154;23;20013;-95
2022/12/30 04:45:52;;;;;;;2.75;1.67;;;;;;;3.96;100.00;99984.13;6177978;23;20007;-94
2022/12/30 04:48:18;;;;;;;1.48;1.38;;;;;;;3.81;100.00;99968.06;6202762;23;20260;-95
2022/12/30 04:50:45;;;;;;;2.30;1.98;;;;;;;3.77;100.00;99968.06;6176465;23;20008;-94
2022/12/30 04:53:11;;;;;;;3.72;2.75;;;;;;;3.81;100.00;99990.00;6203221;23;20012;-95
2022/12/30 04:55:37;;;;;;;1.85;1.75;;;;;;;3.71;100.00;99981.41;6177504;23;20004;-95
2022/12/30 04:58:05;;;;;;;1.13;0.98;;;;;;;3.72;100.00;99991.19;6177025;23;20012;-95
2022/12/30 05:00:31;;;;;;;1.75;1.65;;;;;;;3.81;100.00;100022.94;6200493;23;20059;-95
2022/12/30 05:02:57;;;;;;;3.92;1.80;;;;;;;3.51;100.00;99977.47;6200457;23;20016;-95
2022/12/30 05:05:23;;;;;;;0.80;0.80;;;;;;;3.74;100.00;100023.72;6201836;23;20035;-95
2022/12/30 05:07:49;;;;;;;1.85;1.48;;;;;;;3.64;100.00;99991.59;6171950;23;20020;-95
2022/12/30 05:10:15;;;;;;;2.90;2.08;;;;;;;3.70;100.00;99996.28;6168885;23;20009;-95
2022/12/30 05:12:41;;;;;;;2.15;2.05;;;;;;;3.88;100.00;100006.47;6195035;23;20005;-96
2022/12/30 05:15:07;;;;;;;2.03;1.55;;;;;;;3.81;100.00;99985.31;6194236;23;20058;-95
2022/12/30 05:17:33;;;;;;;12.85;2.15;;;;;;;3.80;100.00;99993.94;6194066;23;20016;-95
2022/12/30 05:19:59;;;;;;;2.33;1.73;;;;;;;3.81;100.00;99995.50;6191296;23;20094;-95
2022/12/30 05:22:25;;;;;;;1.27;1.15;;;;;;;3.82;100.00;99991.56;6167019;23;20452;-95
2022/12/30 05:27:35;;;;;;;1.95;1.20;;;;;;;3.96;100.00;100024.53;6196725;23;20036;-94
2022/12/30 05:30:00;;;;;;;2.38;1.15;;;;;;;3.73;100.00;100000.19;6168767;23;20012;-96
2022/12/30 05:32:26;;;;;;;1.40;1.27;;;;;;;3.87;100.00;100046.06;6169802;23;20027;-95
2022/12/30 05:34:52;;;;;;;1.60;1.50;;;;;;;3.69;100.00;100008.44;6194372;23;20012;-95
2022/12/30 05:37:18;;;;;;;2.38;1.83;;;;;;;3.95;100.00;100061.38;6172155;23;20016;-95
2022/12/30 05:39:43;;;;;;;3.45;3.15;;;;;;;3.64;100.00;100016.28;6169163;23;20078;-95
2022/12/30 05:42:09;;;;;;;2.42;1.55;;;;;;;3.62;100.00;100030.38;6197879;23;20019;-94
2022/12/30 05:44:38;;;;;;;2.35;2.15;;;;;;;3.71;100.00;100035.47;6207282;23;20028;-95
2022/12/30 05:47:05;;;;;;;2.50;2.30;;;;;;;3.56;100.00;100029.19;6184270;23;20004;-95
2022/12/30 05:49:31;;;;;;;2.70;2.50;;;;;;;3.57;100.00;100030.75;6208340;23;20012;-95
2022/12/30 05:51:57;;;;;;;3.40;1.67;;;;;;;3.56;100.00;100026.44;6186144;23;20001;-96
2022/12/30 05:54:23;;;;;;;2.47;1.65;;;;;;;3.88;100.00;100075.09;6211277;23;20017;-95
2022/12/30 05:57:05;;;;;;;5.30;1.65;;;;;;;3.57;100.00;100033.50;6185888;23;20013;-94
2022/12/30 05:59:40;;;;;;;1.85;1.75;;;;;;;3.65;100.00;100032.34;6189330;23;20021;-94
2022/12/30 06:02:06;;;;;;;3.75;2.75;;;;;;;3.76;100.00;100044.09;6209756;23;20040;-95
2022/12/30 06:04:32;;;;;;;9.25;3.00;;;;;;;3.73;100.00;100041.34;6207671;23;20400;-95
2022/12/30 06:06:58;;;;;;;2.17;1.42;;;;;;;3.81;100.00;100053.09;6187541;23;20012;-95
2022/12/30 06:09:29;;;;;;;1.00;0.93;;;;;;;3.83;100.00;100042.53;6211160;23;20024;-95
2022/12/30 06:11:55;;;;;;;1.75;1.65;;;;;;;3.88;100.00;100056.66;6209852;23;20035;-94
2022/12/30 06:14:22;;;;;;;2.45;2.25;;;;;;;3.88;100.00;100042.16;6209600;23;20000;-96
2022/12/30 06:16:48;;;;;;;2.40;2.20;;;;;;;4.02;100.00;100064.88;6186615;23;20076;-96
2022/12/30 06:19:14;;;;;;;1.55;1.45;;;;;;;3.92;100.00;100043.72;6187392;23;20001;-95
2022/12/30 06:21:40;;;;;;;0.85;0.85;;;;;;;3.96;100.00;100057.44;6213951;23;20051;-94
2022/12/30 06:24:06;;;;;;;1.80;1.67;;;;;;;3.91;100.00;100053.13;6185594;23;20016;-96
2022/12/30 06:26:32;;;;;;;1.13;0.82;;;;;;;3.92;100.00;100062.94;6203801;23;20012;-96
2022/12/30 06:28:58;;;;;;;4.43;4.03;;;;;;;3.96;100.00;100077.44;6176853;23;20019;-95
2022/12/30 06:31:24;;;;;;;1.33;1.23;;;;;;;3.84;100.00;100071.56;6176973;23;20012;-96
2022/12/30 06:33:50;;;;;;;1.90;1.80;;;;;;;3.84;100.00;100066.84;6176216;23;20016;-95
2022/12/30 06:36:15;;;;;;;1.33;1.25;;;;;;;3.94;100.00;100087.22;6177413;23;19997;-95
2022/12/30 06:38:41;;;;;;;3.13;2.83;;;;;;;3.86;100.00;100085.66;6210134;23;20401;-95
2022/12/30 06:41:07;;;;;;;3.03;2.67;;;;;;;3.81;100.00;100072.31;6187048;23;20035;-95
2022/12/30 06:43:34;;;;;;;3.70;2.78;;;;;;;3.68;100.00;100072.69;6194186;23;20012;-94
2022/12/30 06:46:00;;;;;;;2.83;2.63;;;;;;;3.65;100.00;100073.47;6185446;23;20019;-95
2022/12/30 06:48:26;;;;;;;5.03;2.95;;;;;;;3.67;100.00;100090.34;6183344;23;20016;-95
2022/12/30 06:51:01;;;;;;;2.83;1.85;;;;;;;3.82;100.00;100112.31;6187142;23;20011;-95
2022/12/30 06:53:33;;;;;;;1.38;1.27;;;;;;;3.70;100.00;100106.03;6216868;23;20016;-95
2022/12/30 06:55:59;;;;;;;3.78;3.47;;;;;;;3.83;100.00;100113.88;6215489;23;20012;-96
2022/12/30 06:58:27;;;;;;;2.00;1.75;;;;;;;3.88;100.00;100122.53;6190795;23;20004;-96
2022/12/30 07:00:57;;;;;;;3.65;1.95;;;;;;;3.92;100.00;100128.00;6190343;23;20342;-95
2022/12/30 07:03:23;;;;;;;7.53;2.78;;;;;;;3.88;100.00;100125.28;6214677;23;20015;-96
2022/12/30 07:05:49;;;;;;;1.75;1.65;;;;;;;4.00;100.00;100152.34;6214673;23;20004;-96
2022/12/30 07:08:16;;;;;;;2.00;1.83;;;;;;;4.35;100.00;100189.25;6209111;23;20009;-96
2022/12/30 07:10:42;;;;;;;1.10;1.05;;;;;;;4.10;100.00;100159.78;6185580;23;20027;-96
2022/12/30 07:13:13;;;;;;;1.23;1.13;;;;;;;4.14;100.00;100173.53;6208064;23;20026;-96
2022/12/30 07:15:40;;;;;;;1.58;1.23;;;;;;;4.10;100.00;100167.25;6184528;23;20012;-96
2022/12/30 07:18:06;;;;;;;1.52;1.42;;;;;;;4.06;100.00;100178.22;6208447;23;20004;-96
2022/12/30 07:20:32;;;;;;;2.08;1.40;;;;;;;4.19;100.00;100197.84;6206620;23;20146;-96
2022/12/30 07:22:58;;;;;;;1.65;1.55;;;;;;;4.13;100.00;100196.66;6202306;23;20087;-96
2022/12/30 07:25:28;;;;;;;4.43;2.95;;;;;;;4.43;100.00;100238.28;6206493;23;20059;-96
2022/12/30 07:27:59;;;;;;;2.22;2.13;;;;;;;4.19;100.00;100197.84;6182627;23;20005;-96
2022/12/30 07:30:26;;;;;;;3.97;3.67;;;;;;;4.58;100.00;100256.34;6199329;23;20017;-96
2022/12/30 07:32:52;;;;;;;1.15;1.15;;;;;;;4.33;100.00;100211.59;6200077;23;20059;-95
2022/12/30 07:35:18;;;;;;;0.30;0.30;;;;;;;4.40;100.00;100232.78;6205130;23;20017;-95
2022/12/30 07:37:44;;;;;;;1.42;1.33;;;;;;;4.43;100.00;100230.06;6180706;23;20016;-95
2022/12/30 07:40:11;;;;;;;0.32;0.32;;;;;;;4.49;100.00;100239.47;6210398;23;20079;-95
2022/12/30 07:42:39;;;;;;;0.60;0.60;;;;;;;4.50;100.00;100229.25;6211936;23;20023;-96
2022/12/30 07:45:06;;;;;;;2.70;1.77;;;;;;;4.46;100.00;100242.22;6212197;23;19992;-96
2022/12/30 07:47:33;;;;;;;1.17;1.08;;;;;;;4.53;100.00;100258.72;6210676;23;20015;-95
2022/12/30 07:49:59;;;;;;;1.52;1.45;;;;;;;4.41;100.00;100226.91;6190226;23;20013;-96
2022/12/30 07:52:25;;;;;;;2.50;1.30;;;;;;;4.73;100.00;100265.41;6197321;23;20024;-96
2022/12/30 07:54:54;;;;;;;1.05;1.05;;;;;;;4.47;100.00;100225.34;6199101;23;20024;-95
2022/12/30 07:57:20;;;;;;;1.15;0.80;;;;;;;4.77;100.00;100270.91;6199323;23;20021;-95
2022/12/30 07:59:45;;;;;;;0.93;0.63;;;;;;;4.52;100.00;100240.66;6198447;23;20025;-96
2022/12/30 08:02:30;;;;;;;1.25;0.77;;;;;;;4.83;100.00;100303.09;6173695;23;20013;-96
2022/12/30 08:04:56;;;;;;;1.60;1.50;;;;;;;4.65;100.00;100281.06;6172344;23;20012;-96
2022/12/30 08:07:21;;;;;;;0.10;0.10;;;;;;;4.55;100.00;100264.59;6170404;23;20017;-96
2022/12/30 08:09:47;;;;;;;1.85;1.48;;;;;;;4.59;100.00;100279.13;6195619;23;20016;-95
2022/12/30 08:12:13;;;;;;;2.33;2.13;;;;;;;4.54;100.00;100272.03;6198284;23;20011;-95
2022/12/30 08:14:39;;;;;;;0.90;0.68;;;;;;;4.52;100.00;100276.38;6196939;23;20034;-95
2022/12/30 08:17:05;;;;;;;2.75;1.67;;;;;;;4.43;100.00;100270.47;6194839;23;20015;-96
2022/12/30 08:19:31;;;;;;;3.35;2.05;;;;;;;4.52;100.00;100321.13;6194531;23;20020;-96
2022/12/30 08:21:57;;;;;;;2.58;2.00;;;;;;;4.59;100.00;100343.09;6195533;23;20020;-96
2022/12/30 08:24:23;;;;;;;1.10;1.08;;;;;;;4.29;100.00;100304.16;6198617;23;20013;-95
2022/12/30 08:26:49;;;;;;;2.97;2.10;;;;;;;4.25;100.00;100299.84;6197791;23;20000;-95
2022/12/30 08:29:15;;;;;;;0.93;0.90;;;;;;;4.17;100.00;100318.25;6174781;23;20449;-96
2022/12/30 08:31:42;;;;;;;7.50;3.33;;;;;;;4.17;100.00;100331.97;6175391;23;20012;-95
2022/12/30 08:34:08;;;;;;;4.38;1.95;;;;;;;4.09;100.00;100330.38;6197420;23;20019;-95
2022/12/30 08:36:34;;;;;;;1.38;0.75;;;;;;;3.91;100.00;100324.03;6192778;23;20016;-96
2022/12/30 08:39:01;;;;;;;3.13;2.92;;;;;;;4.04;100.00;100341.75;6194346;23;20017;-96
2022/12/30 08:41:32;;;;;;;2.40;2.20;;;;;;;4.09;100.00;100352.31;6189521;23;20384;-95
2022/12/30 08:43:58;;;;;;;3.08;2.80;;;;;;;3.99;100.00;100339.34;6215593;23;20016;-95
2022/12/30 08:46:26;;;;;;;2.55;2.35;;;;;;;3.99;100.00;100353.09;6213968;23;20106;-95
2022/12/30 08:48:52;;;;;;;1.17;1.13;;;;;;;4.12;100.00;100370.81;6165170;23;20004;-94
2022/12/30 08:51:18;;;;;;;2.92;2.67;;;;;;;3.98;100.00;100352.28;6189139;23;20075;-95
2022/12/30 08:53:44;;;;;;;1.88;1.63;;;;;;;4.01;100.00;100362.50;6188267;23;20012;-94
2022/12/30 08:56:21;;;;;;;2.15;1.98;;;;;;;3.85;100.00;100342.00;6163492;23;20031;-96
2022/12/30 08:58:47;;;;;;;2.38;1.23;;;;;;;4.17;100.00;100397.88;6163040;23;20012;-93
2022/12/30 09:01:19;;;;;;;0.73;0.73;;;;;;;3.99;100.00;100377.78;6189231;23;20112;-96
2022/12/30 09:03:45;;;;;;;2.55;2.35;;;;;;;3.83;100.00;100366.31;6192624;23;20013;-96
2022/12/30 09:06:16;;;;;;;4.43;4.13;;;;;;;3.83;100.00;100369.88;6205387;23;20028;-96
2022/12/30 09:08:42;;;;;;;2.78;2.58;;;;;;;3.68;100.00;100373.69;6206083;23;20012;-96
2022/12/30 09:11:12;;;;;;;5.35;3.60;;;;;;;3.57;100.00;100364.59;6174262;23;20062;-96
2022/12/30 09:13:39;;;;;;;3.40;3.13;;;;;;;3.69;100.00;100391.72;6181209;23;20016;-96
2022/12/30 09:16:07;;;;;;;1.13;1.02;;;;;;;3.76;100.00;100395.28;6178620;23;20011;-96
2022/12/30 09:18:34;;;;;;;6.88;2.80;;;;;;;3.62;100.00;100370.50;6179238;23;20022;-95
2022/12/30 09:21:00;;;;;;;2.15;2.05;;;;;;;3.99;100.00;100418.97;6180222;23;20043;-95
2022/12/30 09:23:26;;;;;;;3.58;3.08;;;;;;;3.75;100.00;100371.00;6179454;23;20016;-96
2022/12/30 09:25:52;;;;;;;10.90;3.70;;;;;;;3.75;100.00;100368.25;6203091;23;20016;-96
2022/12/30 09:28:18;;;;;;;3.72;2.83;;;;;;;3.79;100.00;100373.75;6201844;23;20019;-95
2022/12/30 09:30:44;;;;;;;3.33;3.13;;;;;;;3.94;100.00;100389.13;6178670;23;20008;-96
2022/12/30 09:33:10;;;;;;;2.00;1.60;;;;;;;4.22;100.00;100408.47;6228163;23;20023;-96
2022/12/30 09:35:36;;;;;;;5.45;2.05;;;;;;;4.16;100.00;100388.06;6204968;23;20083;-96
2022/12/30 09:38:02;;;;;;;2.78;2.58;;;;;;;4.40;100.00;100411.31;6181568;23;20009;-96
2022/12/30 09:40:57;;;;;;;1.83;1.73;;;;;;;4.10;100.00;100356.66;6205228;23;20014;-96
2022/12/30 09:43:47;;;;;;;1.08;1.02;;;;;;;4.50;100.00;100410.56;6220651;23;20042;-96
2022/12/30 09:46:40;;;;;;;2.53;2.17;;;;;;;4.20;100.00;100356.72;6241420;23;20016;-96
2022/12/30 09:49:28;;;;;;;1.43;1.33;;;;;;;4.14;100.00;100351.97;6216999;23;20020;-96
2022/12/30 09:52:05;;;;;;;1.60;1.50;;;;;;;4.43;100.00;100414.06;6191867;23;20074;-96
2022/12/30 09:54:35;;;;;;;3.40;2.55;;;;;;;4.43;100.00;100410.53;6191991;23;20004;-96
2022/12/30 09:59:54;;;;;;;1.73;1.63;;;;;;;4.25;100.00;100366.53;6223957;23;20013;-96
2022/12/30 10:02:22;;;;;;;3.80;1.85;;;;;;;4.31;100.00;100369.69;6193357;23;20031;-96
2022/12/30 10:04:49;;;;;;;1.10;1.10;;;;;;;4.33;100.00;100381.84;6194976;23;20019;-96
2022/12/30 10:08:07;;;;;;;2.20;2.05;;;;;;;4.70;100.00;100420.06;6218409;23;20000;-96
2022/12/30 10:10:45;;;;;;;1.80;1.70;;;;;;;4.49;100.00;100374.06;6157680;23;20020;-96
2022/12/30 10:13:31;;;;;;;5.57;3.78;;;;;;;4.57;100.00;100370.16;6192367;23;20073;-96
2022/12/30 10:16:05;;;;;;;3.33;1.75;;;;;;;4.51;100.00;100377.22;6193995;23;20027;-95
2022/12/30 10:19:13;;;;;;;3.22;2.10;;;;;;;4.92;100.00;100418.16;6192460;23;20008;-95
2022/12/30 10:21:59;;;;;;;0.65;0.65;;;;;;;5.00;100.00;100414.25;6215129;23;20032;-96
2022/12/30 10:24:39;;;;;;;2.30;2.08;;;;;;;4.98;100.00;100397.34;6193211;23;20019;-96
2022/12/30 10:27:16;;;;;;;5.00;3.13;;;;;;;4.83;100.00;100358.06;6192754;23;20012;-96
2022/12/30 10:29:43;;;;;;;2.15;1.95;;;;;;;4.91;100.00;100358.84;6192623;23;20032;-96
2022/12/30 10:32:21;;;;;;;3.28;2.75;;;;;;;5.14;100.00;100384.00;6192571;23;20060;-96
2022/12/30 10:34:56;;;;;;;2.60;2.20;;;;;;;4.98;100.00;100359.63;6192442;23;20024;-96
2022/12/30 10:37:34;;;;;;;3.72;3.13;;;;;;;4.98;100.00;100353.34;6189729;23;20016;-96
2022/12/30 10:40:06;;;;;;;0.77;0.77;;;;;;;5.08;100.00;100367.13;6190615;23;20026;-96
2022/12/30 10:43:03;;;;;;;2.10;1.90;;;;;;;5.32;100.00;100412.31;6192134;23;20031;-95
2022/12/30 10:45:32;;;;;;;4.30;2.60;;;;;;;5.30;100.00;100408.41;6242510;23;20084;-95
2022/12/30 10:47:58;;;;;;;2.90;2.70;;;;;;;5.24;100.00;100410.75;6216725;23;20078;-95
2022/12/30 10:53:13;;;;;;;4.47;3.17;;;;;;;5.18;100.00;100400.53;6265075;23;20054;-95
2022/12/30 10:56:01;;;;;;;3.60;2.17;;;;;;;4.96;100.00;100356.50;6187621;23;20102;-95
2022/12/30 10:58:33;;;;;;;2.92;2.72;;;;;;;5.04;100.00;100374.59;6186020;23;20462;-96
2022/12/30 11:01:00;;;;;;;5.13;3.20;;;;;;;4.94;100.00;100358.06;6191508;23;20031;-96
2022/12/30 11:03:26;;;;;;;3.35;3.00;;;;;;;5.34;100.00;100398.94;6189182;23;20019;-96
2022/12/30 11:05:52;;;;;;;1.27;1.20;;;;;;;5.26;100.00;100353.38;6199335;23;20016;-95
2022/12/30 11:08:28;;;;;;;8.80;5.78;;;;;;;5.64;100.00;100369.06;6218041;23;20068;-95
2022/12/30 11:11:03;;;;;;;6.38;3.28;;;;;;;6.02;100.00;100394.19;6168446;23;20445;-96
2022/12/30 11:16:13;;;;;;;3.50;2.55;;;;;;;5.93;100.00;100369.03;6197642;23;20012;-96
2022/12/30 11:18:43;;;;;;;2.65;1.35;;;;;;;6.40;100.00;100398.00;6170714;23;20006;-95
2022/12/30 11:21:09;;;;;;;1.33;1.30;;;;;;;6.64;100.00;100390.78;6171594;23;20124;-96
2022/12/30 11:23:37;;;;;;;3.47;2.70;;;;;;;7.31;100.00;100418.75;6195540;23;20472;-96
2022/12/30 11:26:17;;;;;;;5.43;2.58;;;;;;;7.38;100.00;100373.75;6194151;23;20000;-96
2022/12/30 11:28:51;;;;;;;2.90;2.67;;;;;;;7.63;100.00;100403.91;6169192;23;20047;-95
2022/12/30 11:31:17;;;;;;;4.72;2.88;;;;;;;7.56;100.00;100370.84;6193736;23;20024;-96
2022/12/30 11:33:47;;;;;;;2.03;1.75;;;;;;;8.10;100.00;100405.00;6168566;23;20008;-95
2022/12/30 11:36:16;;;;;;;6.63;1.85;;;;;;;8.20;100.00;100390.31;6169651;23;20015;-96
2022/12/30 11:38:47;;;;;;;3.63;2.55;;;;;;;8.03;100.00;100352.59;6194949;23;20027;-95
2022/12/30 11:41:16;;;;;;;2.35;2.15;;;;;;;8.33;100.00;100389.38;6170466;23;20126;-95
2022/12/30 11:43:49;;;;;;;3.35;3.10;;;;;;;8.31;100.00;100369.66;6194992;23;20012;-96
2022/12/30 11:46:20;;;;;;;2.33;2.13;;;;;;;8.37;100.00;100367.22;6192807;23;20055;-96
2022/12/30 11:48:51;;;;;;;4.25;2.90;;;;;;;8.65;100.00;100402.03;6167972;23;20012;-96
2022/12/30 11:51:26;;;;;;;3.33;2.25;;;;;;;8.62;100.00;100372.41;6191880;23;20035;-96
2022/12/30 11:54:07;;;;;;;4.03;3.53;;;;;;;8.94;100.00;100400.41;6194445;23;20016;-96
2022/12/30 11:56:33;;;;;;;4.00;3.40;;;;;;;8.60;100.00;100369.28;6194612;23;20054;-96
2022/12/30 11:59:07;;;;;;;2.15;2.05;;;;;;;8.56;100.00;100363.03;6177749;23;20044;-96
2022/12/30 12:01:45;;;;;;;2.45;1.73;;;;;;;8.86;100.00;100407.25;6184489;23;20031;-96
2022/12/30 12:04:37;;;;;;;2.83;2.38;;;;;;;8.66;100.00;100353.78;6211432;23;20067;-95
2022/12/30 12:07:15;;;;;;;2.72;2.53;;;;;;;8.78;100.00;100345.72;6189813;23;20032;-96
2022/12/30 12:09:45;;;;;;;10.88;2.50;;;;;;;8.81;100.00;100346.88;6214717;23;20013;-96
2022/12/30 12:12:14;;;;;;;1.02;0.98;;;;;;;9.10;100.00;100378.44;6191280;23;20012;-96
2022/12/30 12:15:04;;;;;;;5.57;3.10;;;;;;;9.20;100.00;100380.28;6192199;23;20008;-96
2022/12/30 12:17:46;;;;;;;2.67;2.50;;;;;;;9.32;100.00;100376.13;6233362;23;20115;-96
2022/12/30 12:20:20;;;;;;;5.32;3.83;;;;;;;8.96;100.00;100341.91;6232448;23;20094;-96
2022/12/30 12:23:25;;;;;;;2.40;2.30;;;;;;;9.16;100.00;100357.41;6182750;23;20023;-96
2022/12/30 12:26:37;;;;;;;1.38;1.30;;;;;;;9.04;100.00;100340.59;6213592;23;20016;-96
2022/12/30 12:29:04;;;;;;;3.70;3.35;;;;;;;8.79;100.00;100363.09;6076173;23;20097;-96
2022/12/30 12:31:57;;;;;;;2.55;2.35;;;;;;;8.92;100.00;100332.88;6101261;23;20005;-96
2022/12/30 12:35:06;;;;;;;2.63;2.45;;;;;;;8.82;100.00;100349.22;6251050;23;20016;-96
2022/12/30 12:37:58;;;;;;;2.95;2.75;;;;;;;9.26;100.00;100389.66;6220954;23;20002;-96
2022/12/30 12:40:50;;;;;;;2.47;2.28;;;;;;;9.09;100.00;100346.44;6243096;23;20051;-96
2022/12/30 12:43:26;;;;;;;2.60;2.38;;;;;;;9.11;100.00;100388.31;6179003;23;20013;-95
2022/12/30 12:46:23;;;;;;;3.50;3.20;;;;;;;9.06;100.00;100386.00;6199940;23;20523;-95
2022/12/30 16:44:34;;;;;;;2.55;1.92;;;;;;;6.53;100.00;100361.31;6261457;22;20026;-94
2022/12/30 16:47:02;;;;;;;2.35;2.13;;;;;;;6.84;100.00;100411.16;6210905;22;20015;-94
2022/12/30 16:49:41;;;;;;;0.65;0.57;;;;;;;6.51;100.00;100363.69;6211754;22;20015;-95
2022/12/30 16:52:20;;;;;;;3.97;2.10;;;;;;;6.82;100.00;100402.53;6230644;22;20015;-94
2022/12/30 16:54:58;;;;;;;1.08;1.08;;;;;;;6.56;100.00;100359.72;6239508;22;20028;-94
2022/12/30 16:57:24;;;;;;;2.33;1.75;;;;;;;6.52;100.00;100345.19;6232856;22;20095;-95
2022/12/30 16:59:52;;;;;;;1.67;1.58;;;;;;;6.56;100.00;100349.50;6208739;22;19999;-95
2022/12/30 17:02:23;;;;;;;2.80;1.77;;;;;;;6.75;100.00;100375.00;6218319;23;20027;-94
2022/12/30 17:04:49;;;;;;;4.65;2.17;;;;;;;6.84;100.00;100394.63;6230450;23;20012;-96
2022/12/30 17:07:21;;;;;;;1.80;1.70;;;;;;;6.56;100.00;100355.00;6179262;23;20448;-96
2022/12/30 17:12:34;;;;;;;2.08;1.63;;;;;;;6.80;100.00;100382.81;6218393;23;20504;-95
2022/12/30 17:15:02;;;;;;;6.75;2.10;;;;;;;6.81;100.00;100387.16;6213895;23;20444;-93
2022/12/30 17:17:27;;;;;;;1.30;1.20;;;;;;;6.66;100.00;100360.88;6214853;23;20019;-94
2022/12/30 17:19:53;;;;;;;1.58;1.48;;;;;;;6.67;100.00;100349.44;6193691;23;20008;-94
2022/12/30 17:22:23;;;;;;;1.27;1.08;;;;;;;6.64;100.00;100335.66;6220813;23;20313;-94
2022/12/30 17:25:01;;;;;;;2.00;1.75;;;;;;;6.71;100.00;100352.97;6210234;23;20015;-94
2022/12/30 17:28:05;;;;;;;2.65;1.85;;;;;;;7.03;100.00;100400.44;6247296;23;20024;-95
2022/12/30 17:30:35;;;;;;;;;;;;;;;7.06;100.00;100385.03;6216041;23;20039;-95
2022/12/30 17:33:23;;;;;;;2.80;2.25;;;;;;;6.79;100.00;100356.47;6229516;23;19915;-93
2022/12/30 17:35:56;;;;;;;1.55;1.45;;;;;;;7.09;100.00;100406.28;6219772;23;19996;-94
2022/12/30 17:38:30;;;;;;;4.50;2.75;;;;;;;6.99;100.00;100396.91;6246595;23;20013;-95
2022/12/30 17:41:06;;;;;;;2.65;2.05;;;;;;;6.86;100.00;100354.44;6221378;23;20047;-95
2022/12/30 17:46:40;;;;;;;1.55;1.45;;;;;;;6.84;100.00;100364.28;6271158;22;20028;-95
2022/12/30 17:49:06;;;;;;;1.95;1.83;;;;;;;6.89;100.00;100370.16;6220647;23;19992;-95
2022/12/30 17:51:46;;;;;;;2.38;2.17;;;;;;;6.86;100.00;100368.22;6221100;23;20037;-95
